createdAt,value
2022-08-19T00:02:22.386Z,100060.19
2022-08-19T00:04:53.768Z,100055.28
2022-08-19T00:07:23.429Z,100062.44
2022-08-19T00:09:52.995Z,100068.66
2022-08-19T00:12:28.839Z,100079.97
2022-08-19T00:14:58.381Z,100077.28
2022-08-19T00:17:27.927Z,100074.81
2022-08-19T00:19:57.482Z,100075.09
2022-08-19T00:22:28.107Z,100071.00
2022-08-19T00:24:57.738Z,100071.59
2022-08-19T00:27:34.428Z,100073.78
2022-08-19T00:30:04.586Z,100068.66
2022-08-19T00:32:35.378Z,100071.16
2022-08-19T00:35:05.006Z,100070.72
2022-08-19T00:37:36.030Z,100065.81
2022-08-19T00:40:06.602Z,100069.41
2022-08-19T00:42:39.636Z,100069.69
2022-08-19T00:45:13.738Z,100071.91
2022-08-19T00:47:43.299Z,100074.31
2022-08-19T00:50:12.999Z,100075.13
2022-08-19T00:52:46.570Z,100075.34
2022-08-19T00:55:17.252Z,100070.03
2022-08-19T00:57:51.857Z,100069.31
2022-08-19T01:00:22.147Z,100062.94
2022-08-19T01:02:51.945Z,100061.09
2022-08-19T01:05:23.818Z,100059.00
2022-08-19T01:07:54.041Z,100055.25
2022-08-19T01:10:25.414Z,100050.13
2022-08-19T01:12:58.107Z,100049.78
2022-08-19T01:15:28.448Z,100042.09
2022-08-19T01:17:57.968Z,100045.63
2022-08-19T01:20:27.660Z,100039.78
2022-08-19T01:23:00.842Z,100045.13
2022-08-19T01:25:33.366Z,100041.88
2022-08-19T01:28:10.815Z,100038.63
2022-08-19T01:30:44.427Z,100036.13
2022-08-19T01:33:14.136Z,100035.84
2022-08-19T01:35:44.282Z,100031.31
2022-08-19T01:38:23.601Z,100022.41
2022-08-19T01:40:54.102Z,100022.19
2022-08-19T01:43:23.807Z,100010.72
2022-08-19T01:45:53.821Z,100021.31
2022-08-19T01:48:24.715Z,100020.53
2022-08-19T01:50:54.011Z,100031.88
2022-08-19T01:53:26.706Z,100038.28
2022-08-19T01:56:03.244Z,100051.78
2022-08-19T01:58:34.133Z,100051.56
2022-08-19T02:01:03.484Z,100052.09
2022-08-19T02:03:33.155Z,100053.19
2022-08-19T02:06:03.695Z,100052.09
2022-08-19T02:08:36.959Z,100043.41
2022-08-19T02:11:06.802Z,100031.06
2022-08-19T02:13:36.447Z,100034.44
2022-08-19T02:16:06.808Z,100025.13
2022-08-19T02:18:36.593Z,100037.38
2022-08-19T02:21:07.304Z,100039.19
2022-08-19T02:23:39.773Z,100051.97
2022-08-19T02:26:09.617Z,100053.84
2022-08-19T02:28:39.184Z,100050.09
2022-08-19T02:31:12.834Z,100045.09
2022-08-19T02:33:42.739Z,100051.53
2022-08-19T02:36:13.113Z,100048.59
2022-08-19T02:38:54.825Z,100044.03
2022-08-19T02:41:26.930Z,100047.56
2022-08-19T02:44:20.417Z,100052.91
2022-08-19T02:46:48.231Z,100050.97
2022-08-19T02:49:18.242Z,100055.09
2022-08-19T02:51:48.383Z,100061.31
2022-08-19T02:54:20.592Z,100060.28
2022-08-19T02:56:50.215Z,100060.75
2022-08-19T02:59:20.145Z,100068.38
2022-08-19T03:01:52.516Z,100070.88
2022-08-19T03:04:24.233Z,100065.53
2022-08-19T03:06:53.851Z,100063.41
2022-08-19T03:09:26.031Z,100069.34
2022-08-19T03:11:55.606Z,100060.13
2022-08-19T03:14:25.189Z,100054.47
2022-08-19T03:16:55.399Z,100058.22
2022-08-19T03:19:25.046Z,100056.06
2022-08-19T03:21:54.717Z,100057.16
2022-08-19T03:24:27.044Z,100057.41
2022-08-19T03:26:59.588Z,100056.81
2022-08-19T03:29:31.175Z,100050.41
2022-08-19T03:32:01.880Z,100056.31
2022-08-19T03:34:32.447Z,100050.13
2022-08-19T03:37:02.678Z,100042.34
2022-08-19T03:39:34.939Z,100046.16
2022-08-19T03:42:29.307Z,100052.84
2022-08-19T03:44:54.410Z,100052.94
2022-08-19T03:47:24.000Z,100056.63
2022-08-19T03:49:53.581Z,100059.91
2022-08-19T03:52:23.234Z,100058.25
2022-08-19T03:54:55.433Z,100067.47
2022-08-19T03:57:32.020Z,100068.59
2022-08-19T04:00:13.179Z,100061.53
2022-08-19T04:02:56.470Z,100068.59
2022-08-19T04:05:31.254Z,100073.53
2022-08-19T04:08:01.648Z,100073.81
2022-08-19T04:10:34.018Z,100073.28
2022-08-19T04:13:03.596Z,100085.38
2022-08-19T04:15:36.817Z,100086.69
2022-08-19T04:18:08.774Z,100094.25
2022-08-19T04:20:43.047Z,100098.53
2022-08-19T04:23:12.568Z,100095.28
2022-08-19T04:25:46.738Z,100090.16
2022-08-19T04:28:16.399Z,100089.66
2022-08-19T04:30:47.241Z,100087.78
2022-08-19T04:33:17.461Z,100081.59
2022-08-19T04:35:55.667Z,100080.75
2022-08-19T04:38:25.681Z,100082.09
2022-08-19T04:41:10.358Z,100087.25
2022-08-19T04:43:41.227Z,100087.53
2022-08-19T04:46:11.712Z,100088.59
2022-08-19T04:48:58.222Z,100089.69
2022-08-19T04:51:27.855Z,100087.84
2022-08-19T04:53:57.843Z,100081.03
2022-08-19T04:56:30.104Z,100075.97
2022-08-19T04:59:04.017Z,100074.03
2022-08-19T05:01:34.073Z,100084.03
2022-08-19T05:04:05.685Z,100079.41
2022-08-19T05:06:36.049Z,100080.78
2022-08-19T05:09:06.077Z,100082.94
2022-08-19T05:11:40.187Z,100078.31
2022-08-19T05:14:09.978Z,100093.13
2022-08-19T05:16:39.597Z,100094.75
2022-08-19T05:19:21.660Z,100092.81
2022-08-19T05:22:03.711Z,100107.28
2022-08-19T05:24:35.276Z,100109.44
2022-08-19T05:27:08.717Z,100117.31
2022-08-19T05:29:38.438Z,100118.31
2022-08-19T05:32:09.367Z,100103.25
2022-08-19T05:34:39.208Z,100109.06
2022-08-19T05:37:09.452Z,100103.75
2022-08-19T05:39:41.559Z,100101.94
2022-08-19T05:42:15.377Z,100095.97
2022-08-19T05:44:46.705Z,100090.31
2022-08-19T05:47:16.854Z,100095.63
2022-08-19T05:49:46.718Z,100103.69
2022-08-19T05:52:18.810Z,100110.16
2022-08-19T05:54:51.083Z,100104.78
2022-08-19T05:57:23.831Z,100104.78
2022-08-19T05:59:58.278Z,100105.53
2022-08-19T06:02:28.503Z,100107.19
2022-08-19T06:04:58.300Z,100107.63
2022-08-19T06:07:28.516Z,100111.38
2022-08-19T06:09:59.951Z,100125.78
2022-08-19T06:12:35.386Z,100138.31
2022-08-19T06:15:06.214Z,100147.00
2022-08-19T06:17:36.263Z,100139.31
2022-08-19T06:20:07.204Z,100143.28
2022-08-19T06:22:40.436Z,100139.66
2022-08-19T06:25:11.171Z,100160.69
2022-08-19T06:28:14.610Z,100166.25
2022-08-19T06:30:33.538Z,100175.16
2022-08-19T06:33:03.698Z,100174.13
2022-08-19T06:35:33.553Z,100171.63
2022-08-19T06:38:04.397Z,100167.13
2022-08-19T06:40:34.180Z,100173.50
2022-08-19T06:43:08.606Z,100179.94
2022-08-19T06:45:40.652Z,100186.88
2022-08-19T06:48:10.578Z,100190.50
2022-08-19T06:50:41.388Z,100186.22
2022-08-19T06:53:10.981Z,100190.22
2022-08-19T06:55:42.188Z,100199.84
2022-08-19T06:58:15.234Z,100200.91
2022-08-19T07:00:44.845Z,100189.81
2022-08-19T07:03:14.678Z,100178.88
2022-08-19T07:05:45.600Z,100199.53
2022-08-19T07:08:16.044Z,100197.66
2022-08-19T07:10:47.647Z,100193.88
2022-08-19T07:13:20.382Z,100200.47
2022-08-19T07:15:50.536Z,100197.97
2022-08-19T07:18:22.601Z,100191.88
2022-08-19T07:20:52.230Z,100184.56
2022-08-19T07:23:22.528Z,100183.34
2022-08-19T07:25:53.468Z,100187.19
2022-08-19T07:28:25.706Z,100191.81
2022-08-19T07:30:57.440Z,100200.94
2022-08-19T07:33:28.055Z,100202.41
2022-08-19T07:35:57.697Z,100188.50
2022-08-19T07:38:27.269Z,100192.50
2022-08-19T07:40:57.225Z,100187.06
2022-08-19T07:43:34.948Z,100188.81
2022-08-19T07:46:04.962Z,100185.69
2022-08-19T07:48:34.886Z,100182.19
2022-08-19T07:51:05.696Z,100185.16
2022-08-19T07:53:39.566Z,100181.88
2022-08-19T07:56:10.253Z,100192.19
2022-08-19T07:58:45.375Z,100188.91
2022-08-19T08:01:16.541Z,100189.38
2022-08-19T08:03:58.656Z,100200.34
2022-08-19T08:06:40.676Z,100194.97
2022-08-19T08:11:54.407Z,100195.97
2022-08-19T08:14:35.065Z,100188.91
2022-08-19T08:17:04.786Z,100200.94
2022-08-19T08:19:42.112Z,100195.31
2022-08-19T08:22:32.147Z,100198.81
2022-08-19T08:25:05.248Z,100202.06
2022-08-19T08:27:40.618Z,100203.44
2022-08-19T08:30:13.786Z,100207.81
2022-08-19T08:32:44.044Z,100214.06
2022-08-19T08:35:17.620Z,100205.59
2022-08-19T08:37:49.183Z,100205.41
2022-08-19T08:40:22.748Z,100211.13
2022-08-19T08:42:55.009Z,100204.72
2022-08-19T08:45:27.706Z,100210.47
2022-08-19T08:48:04.352Z,100208.38
2022-08-19T08:50:53.421Z,100207.59
2022-08-19T08:53:26.407Z,100203.34
2022-08-19T08:55:59.598Z,100202.59
2022-08-19T08:58:31.772Z,100190.84
2022-08-19T09:01:04.017Z,100198.50
2022-08-19T09:03:33.652Z,100209.19
2022-08-19T09:06:12.037Z,100206.59
2022-08-19T09:08:44.617Z,100215.16
2022-08-19T09:11:16.293Z,100202.19
2022-08-19T09:14:29.228Z,100215.09
2022-08-19T09:17:04.486Z,100209.38
2022-08-19T09:19:34.216Z,100213.00
2022-08-19T09:22:03.803Z,100205.94
2022-08-19T09:24:33.419Z,100202.97
2022-08-19T09:27:15.998Z,100205.66
2022-08-19T09:29:49.567Z,100214.28
2022-08-19T09:32:26.148Z,100205.38
2022-08-19T09:34:59.070Z,100206.25
2022-08-19T09:37:28.800Z,100196.34
2022-08-19T09:39:59.380Z,100199.44
2022-08-19T09:42:30.549Z,100201.22
2022-08-19T09:45:05.364Z,100203.47
2022-08-19T09:47:42.676Z,100199.31
2022-08-19T09:50:16.612Z,100196.09
2022-08-19T09:52:55.068Z,100193.00
2022-08-19T09:55:32.070Z,100190.16
2022-08-19T09:58:04.093Z,100196.13
2022-08-19T10:00:34.561Z,100183.06
2022-08-19T10:03:07.115Z,100185.09
2022-08-19T10:05:55.240Z,100183.84
2022-08-19T10:08:26.755Z,100190.56
2022-08-19T10:10:56.822Z,100183.38
2022-08-19T10:13:32.993Z,100181.50
2022-08-19T10:16:07.513Z,100178.81
2022-08-19T10:18:40.851Z,100184.16
2022-08-19T10:21:15.492Z,100190.50
2022-08-19T10:23:47.343Z,100183.56
2022-08-19T10:26:18.043Z,100180.00
2022-08-19T10:28:48.724Z,100170.97
2022-08-19T10:31:21.349Z,100168.91
2022-08-19T10:34:26.789Z,100168.84
2022-08-19T10:37:00.924Z,100170.47
2022-08-19T10:39:41.175Z,100161.38
2022-08-19T10:42:14.769Z,100165.50
2022-08-19T10:44:44.738Z,100162.91
2022-08-19T10:47:17.209Z,100164.31
2022-08-19T10:50:07.598Z,100161.38
2022-08-19T10:52:49.689Z,100154.59
2022-08-19T10:55:32.774Z,100136.28
2022-08-19T10:58:03.123Z,100162.22
2022-08-19T11:00:32.907Z,100154.06
2022-08-19T11:03:02.612Z,100156.44
2022-08-19T11:05:39.701Z,100153.34
2022-08-19T11:08:22.137Z,100159.28
2022-08-19T11:10:52.283Z,100147.19
2022-08-19T11:13:21.949Z,100135.78
2022-08-19T11:15:51.594Z,100147.84
2022-08-19T11:18:21.195Z,100143.09
2022-08-19T11:20:53.752Z,100144.09
2022-08-19T11:23:23.325Z,100140.56
2022-08-19T11:25:54.201Z,100139.31
2022-08-19T11:28:23.848Z,100136.97
2022-08-19T11:30:53.348Z,100140.00
2022-08-19T11:33:22.927Z,100139.53
2022-08-19T11:35:55.089Z,100124.47
2022-08-19T11:38:24.712Z,100123.47
2022-08-19T11:41:01.240Z,100124.47
2022-08-19T11:43:36.801Z,100129.34
2022-08-19T11:46:08.473Z,100123.31
2022-08-19T11:48:38.126Z,100116.50
2022-08-19T11:51:14.262Z,100120.69
2022-08-19T11:53:43.894Z,100106.81
2022-08-19T11:56:13.648Z,100117.25
2022-08-19T11:58:43.397Z,100107.50
2022-08-19T12:01:13.328Z,100112.53
2022-08-19T12:03:43.102Z,100094.03
2022-08-19T12:06:17.755Z,100092.88
2022-08-19T12:08:48.523Z,100093.56
2022-08-19T12:11:18.090Z,100096.00
2022-08-19T12:13:48.843Z,100084.78
2022-08-19T12:16:20.246Z,100085.97
2022-08-19T12:18:55.036Z,100078.22
2022-08-19T12:21:29.580Z,100080.50
2022-08-19T12:23:59.627Z,100075.44
2022-08-19T12:26:29.730Z,100070.06
2022-08-19T12:29:00.519Z,100068.59
2022-08-19T12:31:30.249Z,100059.09
2022-08-19T12:33:59.828Z,100072.94
2022-08-19T12:36:31.995Z,100069.91
2022-08-19T12:39:02.517Z,100067.72
2022-08-19T12:41:32.093Z,100066.31
2022-08-19T12:44:01.902Z,100054.88
2022-08-19T12:46:32.532Z,100066.19
2022-08-19T12:49:05.152Z,100068.63
2022-08-19T12:51:56.703Z,100065.41
2022-08-19T12:54:26.248Z,100058.50
2022-08-19T12:56:55.826Z,100063.97
2022-08-19T12:59:25.427Z,100057.69
2022-08-19T13:01:55.063Z,100073.53
2022-08-19T13:04:24.674Z,100068.66
2022-08-19T13:06:56.879Z,100061.66
2022-08-19T13:09:26.499Z,100063.53
2022-08-19T13:11:57.869Z,100061.50
2022-08-19T13:14:27.435Z,100071.31
2022-08-19T13:16:57.003Z,100060.59
2022-08-19T13:19:28.946Z,100067.66
2022-08-19T13:22:02.433Z,100060.06
2022-08-19T13:24:33.920Z,100045.56
2022-08-19T13:27:06.769Z,100049.59
2022-08-19T13:29:48.965Z,100052.13
2022-08-19T13:32:31.152Z,100057.81
2022-08-19T13:35:02.675Z,100060.00
2022-08-19T13:37:47.112Z,100067.13
2022-08-19T13:40:19.596Z,100072.28
2022-08-19T13:42:50.275Z,100069.09
2022-08-19T13:45:20.624Z,100069.03
2022-08-19T13:47:52.043Z,100062.53
2022-08-19T13:50:24.087Z,100059.84
2022-08-19T13:52:56.190Z,100053.31
2022-08-19T13:55:25.980Z,100050.03
2022-08-19T13:57:55.820Z,100044.41
2022-08-19T14:00:27.544Z,100057.78
2022-08-19T14:02:58.600Z,100056.69
2022-08-19T14:05:29.307Z,100063.97
2022-08-19T14:08:01.692Z,100066.56
2022-08-19T14:10:32.684Z,100061.66
2022-08-19T14:13:03.214Z,100067.75
2022-08-19T14:15:32.858Z,100074.94
2022-08-19T14:18:03.665Z,100065.28
2022-08-19T14:20:33.292Z,100066.72
2022-08-19T14:23:06.224Z,100066.81
2022-08-19T14:25:36.112Z,100071.50
2022-08-19T14:28:06.064Z,100069.19
2022-08-19T14:30:38.729Z,100068.72
2022-08-19T14:33:09.560Z,100064.09
2022-08-19T14:35:39.534Z,100072.84
2022-08-19T14:38:18.714Z,100059.88
2022-08-19T14:40:58.759Z,100057.81
2022-08-19T14:43:28.421Z,100065.31
2022-08-19T14:45:58.116Z,100061.94
2022-08-19T14:48:29.136Z,100065.84
2022-08-19T14:50:58.844Z,100065.06
2022-08-19T14:53:31.055Z,100064.88
2022-08-19T14:56:00.614Z,100052.78
2022-08-19T14:58:30.567Z,100062.41
2022-08-19T15:01:01.716Z,100063.50
2022-08-19T15:03:32.649Z,100067.81
2022-08-19T15:06:03.340Z,100060.47
2022-08-19T15:08:36.254Z,100065.34
2022-08-19T15:11:05.930Z,100065.81
2022-08-19T15:13:35.555Z,100065.44
2022-08-19T15:16:05.598Z,100055.97
2022-08-19T15:18:36.036Z,100050.78
2022-08-19T15:21:05.484Z,100048.16
2022-08-19T15:23:37.697Z,100035.00
2022-08-19T15:26:11.573Z,100040.03
2022-08-19T15:28:45.772Z,100036.06
2022-08-19T15:31:17.089Z,100041.75
2022-08-19T15:33:57.146Z,100033.22
2022-08-19T15:36:27.149Z,100037.69
2022-08-19T15:39:00.171Z,100038.28
2022-08-19T15:41:30.968Z,100031.81
2022-08-19T15:44:03.258Z,100029.72
2022-08-19T15:46:34.499Z,100032.28
2022-08-19T15:49:04.107Z,100025.09
2022-08-19T15:51:35.542Z,100024.09
2022-08-19T15:54:08.584Z,100004.56
2022-08-19T15:56:57.988Z,100020.78
2022-08-19T15:59:46.939Z,100017.25
2022-08-19T16:02:32.094Z,100032.16
2022-08-19T16:05:14.315Z,100033.84
2022-08-19T16:07:43.876Z,100042.13
2022-08-19T16:10:26.204Z,100038.66
2022-08-19T16:12:57.398Z,100038.00
2022-08-19T16:15:27.946Z,100029.28
2022-08-19T16:17:57.947Z,100037.97
2022-08-19T16:20:28.051Z,100030.09
2022-08-19T16:22:58.640Z,100024.56
2022-08-19T16:25:30.882Z,100035.00
2022-08-19T16:28:06.561Z,100023.13
2022-08-19T16:30:37.712Z,100022.94
2022-08-19T16:33:13.973Z,100031.72
2022-08-19T16:36:08.768Z,100029.81
2022-08-19T16:38:44.015Z,100027.88
2022-08-19T16:41:18.669Z,100035.06
2022-08-19T16:43:58.010Z,100038.25
2022-08-19T16:50:59.637Z,100032.91
2022-08-19T16:53:47.158Z,100041.66
2022-08-19T16:56:29.363Z,100046.91
2022-08-19T16:59:55.735Z,100057.63
2022-08-19T17:02:29.632Z,100048.81
2022-08-19T17:05:00.789Z,100052.03
2022-08-19T17:07:33.698Z,100054.28
2022-08-19T17:10:03.472Z,100059.53
2022-08-19T17:12:37.825Z,100058.84
2022-08-19T17:15:11.577Z,100062.84
2022-08-19T17:17:42.047Z,100061.69
2022-08-19T17:20:15.628Z,100067.38
2022-08-19T17:22:45.238Z,100067.78
2022-08-19T17:25:18.512Z,100067.88
2022-08-19T17:27:51.653Z,100065.03
2022-08-19T17:30:22.356Z,100069.09
2022-08-19T17:32:52.024Z,100076.13
2022-08-19T17:35:30.072Z,100061.56
2022-08-19T17:38:02.873Z,100073.19
2022-08-19T17:40:42.335Z,100076.47
2022-08-19T17:43:15.812Z,100081.78
2022-08-19T17:45:48.246Z,100084.28
2022-08-19T17:48:18.137Z,100088.88
2022-08-19T17:50:52.488Z,100088.53
2022-08-19T17:53:24.758Z,100085.72
2022-08-19T17:56:13.422Z,100093.13
2022-08-19T17:59:00.049Z,100093.97
2022-08-19T18:01:51.922Z,100094.34
2022-08-19T18:04:20.476Z,100097.56
2022-08-19T18:06:53.656Z,100099.97
2022-08-19T18:09:25.958Z,100106.81
2022-08-19T18:11:57.114Z,100111.00
2022-08-19T18:14:33.736Z,100120.63
2022-08-19T18:17:06.184Z,100118.09
2022-08-19T18:19:41.223Z,100122.00
2022-08-19T18:22:13.321Z,100132.75
2022-08-19T18:24:45.866Z,100131.78
2022-08-19T18:27:18.787Z,100132.91
2022-08-19T18:29:54.157Z,100134.00
2022-08-19T18:32:25.531Z,100130.88
2022-08-19T18:34:56.287Z,100137.78
2022-08-19T18:37:29.193Z,100144.53
2022-08-19T18:40:11.280Z,100146.75
2022-08-19T18:42:57.570Z,100141.03
2022-08-19T18:45:43.671Z,100151.28
2022-08-19T18:48:27.418Z,100153.38
2022-08-19T18:50:58.750Z,100158.16
2022-08-19T18:53:28.488Z,100154.66
2022-08-19T18:55:58.127Z,100162.19
2022-08-19T18:58:33.890Z,100173.84
2022-08-19T19:01:11.645Z,100175.31
2022-08-19T19:03:42.917Z,100179.00
2022-08-19T19:06:12.509Z,100181.25
2022-08-19T19:08:42.121Z,100178.84
2022-08-19T19:11:11.709Z,100190.19
2022-08-19T19:13:41.922Z,100191.00
2022-08-19T19:16:14.224Z,100195.00
2022-08-19T19:18:44.694Z,100199.63
2022-08-19T19:21:42.046Z,100197.53
2022-08-19T19:24:14.416Z,100204.91
2022-08-19T19:26:51.517Z,100200.22
2022-08-19T19:29:24.214Z,100202.47
2022-08-19T19:31:56.569Z,100206.16
2022-08-19T19:34:29.573Z,100213.88
2022-08-19T19:36:59.822Z,100213.22
2022-08-19T19:39:45.109Z,100215.91
2022-08-19T19:42:21.007Z,100217.19
2022-08-19T19:44:51.597Z,100229.34
2022-08-19T19:47:28.196Z,100218.31
2022-08-19T19:50:15.299Z,100225.13
2022-08-19T19:52:45.750Z,100229.78
2022-08-19T19:55:18.415Z,100239.06
2022-08-19T19:58:08.051Z,100239.34
2022-08-19T20:00:40.212Z,100228.25
2022-08-19T20:03:12.570Z,100243.66
2022-08-19T20:05:42.248Z,100248.69
2022-08-19T20:08:24.281Z,100252.69
2022-08-19T20:10:53.939Z,100249.19
2022-08-19T20:13:23.553Z,100254.38
2022-08-19T20:15:55.119Z,100254.19
2022-08-19T20:18:29.217Z,100253.03
2022-08-19T20:21:00.254Z,100254.06
2022-08-19T20:23:31.224Z,100253.72
2022-08-19T20:26:01.786Z,100255.63
2022-08-19T20:28:33.467Z,100250.34
2022-08-19T20:31:03.520Z,100252.16
2022-08-19T20:33:40.329Z,100253.25
2022-08-19T20:36:10.595Z,100261.56
2022-08-19T20:38:40.823Z,100256.31
2022-08-19T20:41:21.955Z,100261.56
2022-08-19T20:43:51.840Z,100248.88
2022-08-19T20:46:21.631Z,100255.31
2022-08-19T20:48:53.821Z,100263.13
2022-08-19T20:51:24.096Z,100262.94
2022-08-19T20:53:53.698Z,100259.53
2022-08-19T20:56:23.395Z,100270.75
2022-08-19T20:58:57.967Z,100269.81
2022-08-19T21:01:29.516Z,100269.78
2022-08-19T21:04:04.821Z,100261.34
2022-08-19T21:06:34.440Z,100271.41
2022-08-19T21:09:04.046Z,100274.38
2022-08-19T21:11:34.406Z,100272.59
2022-08-19T21:14:03.991Z,100277.50
2022-08-19T21:16:34.088Z,100281.22
2022-08-19T21:19:08.559Z,100284.44
2022-08-19T21:21:51.554Z,100291.78
2022-08-19T21:24:31.424Z,100294.81
2022-08-19T21:27:05.783Z,100287.22
2022-08-19T21:29:37.470Z,100287.72
2022-08-19T21:32:07.703Z,100295.75
2022-08-19T21:34:41.389Z,100297.47
2022-08-19T21:37:18.995Z,100294.25
2022-08-19T21:39:58.356Z,100298.75
2022-08-19T21:42:27.966Z,100299.19
2022-08-19T21:45:01.068Z,100302.84
2022-08-19T21:47:30.699Z,100301.53
2022-08-19T21:50:07.477Z,100297.19
2022-08-19T21:52:37.175Z,100294.19
2022-08-19T21:55:07.962Z,100297.19
2022-08-19T21:57:41.481Z,100291.00
2022-08-19T22:00:15.637Z,100300.25
2022-08-19T22:02:45.718Z,100305.88
2022-08-19T22:05:20.547Z,100304.56
2022-08-19T22:07:50.203Z,100298.75
2022-08-19T22:10:22.313Z,100304.81
2022-08-19T22:12:51.879Z,100298.91
2022-08-19T22:15:26.228Z,100291.25
2022-08-19T22:17:57.140Z,100292.94
2022-08-19T22:20:36.238Z,100287.34
2022-08-19T22:23:09.628Z,100299.78
2022-08-19T22:25:40.580Z,100294.66
2022-08-19T22:28:13.984Z,100297.19
2022-08-19T22:30:44.290Z,100291.28
2022-08-19T22:33:16.597Z,100284.97
2022-08-19T22:35:49.284Z,100291.59
2022-08-19T22:38:19.439Z,100291.41
2022-08-19T22:40:50.131Z,100296.13
2022-08-19T22:43:20.982Z,100290.72
2022-08-19T22:45:51.742Z,100285.47
2022-08-19T22:48:22.325Z,100283.38
2022-08-19T22:51:06.887Z,100281.69
2022-08-19T22:53:36.767Z,100270.19
2022-08-19T22:56:06.800Z,100276.16
2022-08-19T22:58:37.532Z,100277.34
2022-08-19T23:01:10.923Z,100279.84
2022-08-19T23:03:42.613Z,100276.03
2022-08-19T23:06:15.183Z,100273.94
2022-08-19T23:08:44.959Z,100269.91
2022-08-19T23:11:14.553Z,100268.22
2022-08-19T23:13:44.235Z,100277.44
2022-08-19T23:16:13.811Z,100274.34
2022-08-19T23:18:45.466Z,100274.34
2022-08-19T23:21:17.664Z,100265.38
2022-08-19T23:23:49.693Z,100266.50
2022-08-19T23:26:19.261Z,100268.19
2022-08-19T23:29:01.346Z,100273.88
2022-08-19T23:31:30.980Z,100270.03
2022-08-19T23:34:00.574Z,100280.06
2022-08-19T23:36:32.794Z,100275.84
2022-08-19T23:39:02.484Z,100271.94
2022-08-19T23:41:32.147Z,100273.84
2022-08-19T23:44:02.340Z,100282.06
2022-08-19T23:46:34.450Z,100279.34
2022-08-19T23:49:10.623Z,100272.66
2022-08-19T23:51:42.843Z,100268.63
2022-08-19T23:54:12.409Z,100269.19
2022-08-19T23:56:41.992Z,100276.59
2022-08-19T23:59:15.542Z,100280.72
